AWM weather

West Memphis Municipal Airport
West Memphis, Arkansas, United States

Public forecast

Using degrees Fahrenheit for public forecast. Weather courtesy of forecast.io.

METAR (pilot weather report)

Retrieved 2019/06/20 19:53 UTC (36 minutes ago):

KAWM 201953Z AUTO 00000KT 10SM SCT045 SCT055 30/21 A2983 RMK AO2 SLP096 T03000211

TAF (pilot weather forecast)

Closest forecast is Memphis International Airport, 13.8 nm (25.6 km) ESE. Retrieved 2019/06/20 18:30 UTC (2 hours ago):

TAF KMEM 201729Z 2018/2124 28010KT P6SM SCT035 BKN060 TEMPO 2019/2020 BKN035 FM202100 28007KT P6SM SCT045 FM210100 VRB05KT P6SM FEW250 FM211200 18008KT P6SM SCT015 SCT150 FM211600 19011G17KT P6SM VCSH SCT040 BKN100